Time;durP1;ratioP1;P1;durP2;ratioP2;P2;SDS_P1;SDS_P2;PMS_P1;PMS_P2;Temp;Humidity;BMP_temperature;BMP_pressure;BME280_temperature;BME280_humidity;BME280_pressure;Samples;Min_cycle;Max_cycle;Signal;HPM_P1;HPM_P2
2023/02/16 00:01:47;;;;;;;12.70;7.50;;;;;;;0.33;77.28;99966.98;105068;1263;73723;-25
2023/02/16 00:04:28;;;;;;;13.50;8.20;;;;;;;0.09;77.46;99964.48;105202;1265;76157;-25
2023/02/16 00:06:56;;;;;;;16.00;8.40;;;;;;;-0.15;78.15;99960.08;105154;1263;73503;-25
2023/02/16 00:09:25;;;;;;;17.20;8.20;;;;;;;-0.37;78.89;99956.63;105235;1263;61081;-25
2023/02/16 00:14:44;;;;;;;9.10;5.30;;;;;;;-0.71;79.88;99957.69;105224;1262;74867;-25
2023/02/16 00:17:13;;;;;;;14.30;8.00;;;;;;;-0.12;80.08;99955.39;104977;1263;75280;-25
2023/02/16 00:19:41;;;;;;;16.50;8.30;;;;;;;0.56;78.63;99952.91;104889;1263;74460;-25
2023/02/16 00:22:10;;;;;;;15.00;7.70;;;;;;;0.65;77.68;99948.26;105093;1263;61870;-25
2023/02/16 00:24:38;;;;;;;15.50;7.20;;;;;;;0.46;77.39;99949.76;105137;1263;61883;-25
2023/02/16 00:27:11;;;;;;;14.00;7.70;;;;;;;0.21;77.49;99947.46;105143;1262;74511;-25
2023/02/16 00:29:40;;;;;;;14.90;8.40;;;;;;;-0.06;78.11;99944.51;104886;1267;74919;-25
2023/02/16 00:32:10;;;;;;;15.10;9.00;;;;;;;-0.32;78.64;99937.94;105113;1264;73496;-25
2023/02/16 00:34:40;;;;;;;13.60;8.60;;;;;;;-0.55;79.33;99937.91;104946;1268;61218;-25
2023/02/16 00:37:12;;;;;;;11.60;7.40;;;;;;;-0.72;79.64;99941.16;104832;1266;62149;-25
2023/02/16 00:39:42;;;;;;;11.50;6.00;;;;;;;-0.84;79.40;99937.33;104848;1266;74587;-25
2023/02/16 00:42:23;;;;;;;13.50;7.80;;;;;;;-0.40;79.89;99935.89;104804;1265;76145;-25
2023/02/16 00:44:52;;;;;;;18.30;8.20;;;;;;;0.27;78.77;99936.56;104671;1271;72704;-25
2023/02/16 00:47:31;;;;;;;14.60;8.60;;;;;;;0.32;78.21;99933.20;104751;1266;62056;-25
2023/02/16 00:50:00;;;;;;;16.90;8.10;;;;;;;0.12;78.21;99932.64;104757;1272;62121;-26
2023/02/16 00:52:35;;;;;;;15.90;8.40;;;;;;;-0.10;78.69;99930.09;104960;1266;74712;-25
2023/02/16 00:55:09;;;;;;;16.20;8.40;;;;;;;-0.32;78.60;99929.75;104974;1264;75164;-25
2023/02/16 00:57:54;;;;;;;13.40;8.80;;;;;;;-0.54;78.92;99923.74;104795;1271;73909;-24
2023/02/16 01:00:27;;;;;;;15.80;8.80;;;;;;;-0.75;78.85;99916.67;104984;1266;61095;-26
2023/02/16 01:02:57;;;;;;;14.70;8.70;;;;;;;-0.94;79.20;99919.10;104939;1264;61721;-24
2023/02/16 01:05:26;;;;;;;8.10;4.40;;;;;;;-1.08;79.27;99917.16;104801;1267;73507;-24
2023/02/16 01:13:44;;;;;;;13.90;9.10;;;;;;;0.18;77.81;99910.63;105336;1257;61951;-25
2023/02/16 01:16:18;;;;;;;12.90;6.20;;;;;;;-0.02;77.74;99914.89;105373;1263;61241;-25
2023/02/16 01:18:46;;;;;;;12.10;7.10;;;;;;;-0.26;78.39;99912.20;105096;1257;73335;-25
2023/02/16 01:21:15;;;;;;;15.20;7.80;;;;;;;-0.49;78.49;99909.48;105544;1256;75204;-25
2023/02/16 01:23:43;;;;;;;16.80;7.90;;;;;;;-0.72;79.02;99904.52;105595;1256;74303;-24
2023/02/16 01:26:14;;;;;;;13.90;8.40;;;;;;;-0.92;79.53;99903.23;105496;1256;61331;-25
2023/02/16 01:28:46;;;;;;;11.80;5.90;;;;;;;-1.08;79.81;99897.89;105099;1262;61902;-24
2023/02/16 01:31:16;;;;;;;16.70;7.10;;;;;;;-0.64;80.10;99892.05;105118;1256;73918;-24
2023/02/16 01:33:45;;;;;;;17.20;8.10;;;;;;;0.04;79.15;99897.31;105223;1261;75578;-25
2023/02/16 01:36:28;;;;;;;17.40;8.80;;;;;;;0.20;78.31;99898.98;105602;1257;74181;-25
2023/02/16 01:38:56;;;;;;;13.90;7.50;;;;;;;0.01;77.95;99894.14;105356;1257;61862;-25
2023/02/16 01:41:40;;;;;;;12.90;7.30;;;;;;;-0.23;78.38;99889.95;105299;1264;61850;-25
2023/02/16 01:44:14;;;;;;;14.30;7.50;;;;;;;-0.51;78.74;99889.55;105431;1256;74605;-25
2023/02/16 01:46:50;;;;;;;15.80;7.50;;;;;;;-0.74;78.88;99888.00;105254;1265;74993;-25
2023/02/16 01:49:19;;;;;;;12.20;7.90;;;;;;;-1.00;79.36;99887.34;105293;1264;73964;-24
2023/02/16 01:52:22;;;;;;;11.20;6.80;;;;;;;-1.22;79.72;99882.67;105305;1257;61151;-24
2023/02/16 01:54:59;;;;;;;10.10;4.90;;;;;;;-1.36;79.58;99884.13;105589;1262;61440;-25
2023/02/16 01:57:45;;;;;;;13.60;6.60;;;;;;;-0.67;79.16;99887.33;105340;1264;73514;-24
2023/02/16 02:00:21;;;;;;;13.40;7.90;;;;;;;-0.08;77.96;99882.95;105430;1262;75531;-24
2023/02/16 02:05:33;;;;;;;14.00;8.10;;;;;;;-0.14;77.60;99884.27;105614;1260;74471;-24
2023/02/16 02:05:43;;;;;;;14.50;6.90;;;;;;;-0.46;77.72;99883.12;105431;1256;61169;-25
2023/02/16 02:08:24;;;;;;;17.00;7.80;;;;;;;-0.77;77.98;99880.91;105633;1262;61968;-24
2023/02/16 02:11:13;;;;;;;14.90;8.50;;;;;;;-1.12;78.33;99875.66;105354;1256;74713;-24
2023/02/16 02:13:56;;;;;;;15.30;8.90;;;;;;;-1.45;79.36;99877.30;105357;1257;76014;-24
2023/02/16 02:16:25;;;;;;;14.60;8.60;;;;;;;-1.73;79.65;99875.27;105339;1265;74226;-25
2023/02/16 02:18:55;;;;;;;13.90;9.40;;;;;;;-1.97;80.06;99875.16;105273;1265;61183;-24
2023/02/16 02:25:03;;;;;;;14.00;7.00;;;;;;;-1.41;80.54;99873.64;105130;1262;74962;-24
2023/02/16 02:27:37;;;;;;;17.30;7.80;;;;;;;-0.83;79.90;99872.00;105093;1256;76215;-24
2023/02/16 02:30:12;;;;;;;18.40;9.80;;;;;;;-0.94;79.75;99866.09;105289;1257;74171;-25
2023/02/16 02:32:55;;;;;;;15.50;8.30;;;;;;;-1.19;80.87;99858.91;105646;1257;61232;-24
2023/02/16 02:35:24;;;;;;;15.70;8.20;;;;;;;-1.44;81.29;99866.39;105566;1256;61174;-24
2023/02/16 02:37:55;;;;;;;16.90;8.60;;;;;;;-1.66;81.86;99866.46;105382;1256;74528;-24
2023/02/16 02:40:36;;;;;;;15.60;7.80;;;;;;;-1.88;81.22;99863.77;105290;1256;75989;-25
2023/02/16 02:43:50;;;;;;;16.20;8.90;;;;;;;-2.11;81.03;99861.77;105253;1260;74425;-24
2023/02/16 02:46:28;;;;;;;13.20;5.90;;;;;;;-2.28;81.17;99858.98;105051;1259;61904;-24
2023/02/16 02:48:56;;;;;;;13.30;7.40;;;;;;;-1.54;81.38;99856.88;105255;1257;62087;-25
2023/02/16 02:51:28;;;;;;;10.50;5.90;;;;;;;-0.94;79.86;99853.14;105141;1257;74620;-25
2023/02/16 03:02:39;;;;;;;12.90;6.40;;;;;;;-1.83;80.07;99846.83;105284;1257;61809;-24
2023/02/16 03:05:08;;;;;;;13.50;8.40;;;;;;;-2.13;80.33;99843.94;105574;1256;74850;-24
2023/02/16 03:07:46;;;;;;;17.70;9.00;;;;;;;-2.40;81.22;99842.83;105378;1256;76138;-24
2023/02/16 03:13:22;;;;;;;10.70;5.80;;;;;;;-2.76;83.28;99845.73;105440;1259;62870;-24
2023/02/16 03:15:54;;;;;;;21.30;8.50;;;;;;;-2.03;82.76;99845.48;105138;1258;62111;-24
2023/02/16 03:29:37;;;;;;;18.30;8.70;;;;;;;-2.22;81.84;99827.23;105519;1259;61743;-24
2023/02/16 03:32:05;;;;;;;14.20;8.10;;;;;;;-2.40;82.44;99827.70;105365;1256;74850;-24
2023/02/16 03:34:34;;;;;;;14.60;8.20;;;;;;;-2.58;82.13;99822.19;105471;1256;76416;-25
2023/02/16 03:37:03;;;;;;;8.00;4.90;;;;;;;-2.73;82.72;99821.05;105423;1255;73859;-24
2023/02/16 03:40:26;;;;;;;12.10;6.70;;;;;;;-2.23;82.58;99815.00;105469;1257;61859;-24
2023/02/16 03:42:21;;;;;;;13.80;7.30;;;;;;;-1.49;81.25;99815.39;105293;1260;61817;-24
2023/02/16 03:44:50;;;;;;;16.80;8.70;;;;;;;-1.45;80.14;99809.69;105390;1257;74535;-24
2023/02/16 03:47:18;;;;;;;13.20;7.50;;;;;;;-1.69;79.64;99810.65;105399;1260;75955;-25
2023/02/16 03:49:47;;;;;;;16.40;8.10;;;;;;;-1.99;79.93;99810.17;105319;1259;73359;-24
2023/02/16 03:52:15;;;;;;;16.50;8.80;;;;;;;-2.26;80.47;99811.83;105319;1259;61200;-24
2023/02/16 03:54:43;;;;;;;16.70;9.80;;;;;;;-2.50;80.87;99807.10;105336;1256;61844;-24
2023/02/16 03:57:11;;;;;;;17.80;10.30;;;;;;;-2.71;81.26;99808.79;105352;1259;74861;-24
2023/02/16 03:59:40;;;;;;;15.20;6.50;;;;;;;-2.90;81.41;99809.55;105506;1259;75850;-24
2023/02/16 04:02:08;;;;;;;15.40;8.50;;;;;;;-2.50;81.89;99805.56;105572;1259;74485;-24
2023/02/16 04:04:37;;;;;;;14.80;7.20;;;;;;;-1.77;80.88;99805.87;105371;1259;62279;-24
2023/02/16 04:07:05;;;;;;;17.60;9.50;;;;;;;-1.60;80.16;99800.29;105348;1261;61914;-24
2023/02/16 04:09:33;;;;;;;22.50;11.00;;;;;;;-1.75;80.04;99798.85;105385;1259;75477;-25
2023/02/16 04:14:53;;;;;;;20.00;9.50;;;;;;;-2.36;80.56;99793.27;105437;1259;74462;-24
2023/02/16 04:17:22;;;;;;;19.60;10.80;;;;;;;-2.61;81.11;99794.17;105311;1259;61168;-24
2023/02/16 04:19:50;;;;;;;19.70;11.50;;;;;;;-2.84;81.61;99795.04;105499;1260;61883;-24
2023/02/16 04:22:20;;;;;;;19.30;10.20;;;;;;;-3.04;81.96;99795.30;105410;1256;75677;-23
2023/02/16 04:24:48;;;;;;;12.80;6.50;;;;;;;-3.21;82.25;99790.10;105314;1259;76214;-23
2023/02/16 04:27:17;;;;;;;15.30;7.90;;;;;;;-2.75;82.28;99792.69;105331;1257;73520;-24
2023/02/16 04:29:45;;;;;;;13.70;7.70;;;;;;;-1.97;81.45;99786.48;105338;1259;62039;-24
2023/02/16 04:32:13;;;;;;;19.90;8.90;;;;;;;-1.77;80.08;99785.45;105544;1259;61824;-24
2023/02/16 04:34:42;;;;;;;17.30;9.60;;;;;;;-1.91;80.40;99779.57;105426;1260;75676;-24
2023/02/16 04:37:11;;;;;;;18.50;9.70;;;;;;;-2.15;80.56;99775.41;105517;1257;76141;-24
2023/02/16 04:39:40;;;;;;;17.30;9.00;;;;;;;-2.45;80.70;99769.95;105398;1259;73931;-24
2023/02/16 04:42:09;;;;;;;17.00;10.00;;;;;;;-2.72;81.10;99768.18;105463;1259;61454;-24
2023/02/16 04:44:37;;;;;;;16.90;9.00;;;;;;;-2.97;81.63;99764.98;105291;1259;61579;-24
2023/02/16 04:47:06;;;;;;;11.80;5.00;;;;;;;-3.17;82.45;99763.38;105269;1256;75217;-23
2023/02/16 04:49:34;;;;;;;18.10;9.00;;;;;;;-2.83;83.20;99759.65;105350;1256;75940;-24
2023/02/16 04:52:03;;;;;;;18.30;9.70;;;;;;;-2.10;82.47;99757.95;105237;1260;74226;-24
2023/02/16 04:54:33;;;;;;;14.60;8.50;;;;;;;-1.91;81.16;99757.95;105100;1258;62152;-24
2023/02/16 04:57:01;;;;;;;19.80;10.90;;;;;;;-2.06;80.85;99756.02;105273;1260;61640;-24
2023/02/16 04:59:29;;;;;;;20.00;11.50;;;;;;;-2.33;81.12;99756.66;105340;1259;75483;-24
2023/02/16 05:01:58;;;;;;;16.60;10.60;;;;;;;-2.61;81.08;99751.52;105354;1257;75875;-23
2023/02/16 05:04:28;;;;;;;20.00;9.20;;;;;;;-2.88;81.67;99757.20;105310;1259;74018;-24
2023/02/16 05:06:56;;;;;;;21.30;11.20;;;;;;;-3.08;82.32;99755.44;105254;1260;61141;-24
2023/02/16 05:09:25;;;;;;;16.20;7.00;;;;;;;-3.23;82.65;99754.11;105269;1262;62042;-24
2023/02/16 05:14:41;;;;;;;13.30;7.50;;;;;;;-2.01;81.95;99747.42;105290;1262;75767;-24
2023/02/16 05:17:23;;;;;;;14.00;7.30;;;;;;;-1.92;82.66;99748.45;105364;1259;74156;-24
2023/02/16 05:19:54;;;;;;;;;;;;;;;-2.01;83.60;99747.59;105284;1260;61033;-24
2023/02/16 05:22:22;;;;;;;17.20;9.20;;;;;;;-2.18;84.01;99751.47;105369;1257;61883;-24
2023/02/16 05:24:51;;;;;;;16.80;9.50;;;;;;;-2.40;84.16;99754.23;105562;1259;75591;-23
2023/02/16 05:27:21;;;;;;;15.10;9.00;;;;;;;-2.67;84.99;99750.59;105658;1259;76435;-25
2023/02/16 05:29:50;;;;;;;11.60;7.00;;;;;;;-2.80;85.97;99750.44;105232;1260;74455;-24
2023/02/16 05:32:19;;;;;;;16.50;8.80;;;;;;;-2.25;85.75;99750.73;105447;1259;61374;-24
2023/02/16 05:34:47;;;;;;;23.60;9.00;;;;;;;-1.60;84.62;99752.08;105391;1259;62169;-26
2023/02/16 05:37:17;;;;;;;16.60;9.50;;;;;;;-1.43;83.98;99753.45;105340;1259;75341;-25
2023/02/16 05:39:45;;;;;;;17.40;7.90;;;;;;;-1.52;83.72;99746.64;105553;1262;76148;-26
2023/02/16 05:42:15;;;;;;;22.90;8.40;;;;;;;-1.70;83.89;99747.52;105580;1260;74141;-26
2023/02/16 05:44:44;;;;;;;11.80;7.20;;;;;;;-1.89;84.34;99743.63;105248;1261;61145;-25
2023/02/16 05:47:12;;;;;;;14.50;8.40;;;;;;;-1.96;84.69;99743.92;105261;1260;61846;-26
2023/02/16 05:49:41;;;;;;;12.80;6.80;;;;;;;-1.43;84.35;99741.02;105331;1260;75645;-25
2023/02/16 05:52:09;;;;;;;15.20;6.20;;;;;;;-1.20;82.82;99737.95;105365;1257;76196;-26
2023/02/16 05:54:38;;;;;;;12.10;6.40;;;;;;;-1.26;82.47;99736.90;105395;1259;74482;-26
2023/02/16 05:57:11;;;;;;;;;;;;;;;-1.56;83.14;99734.83;105316;1257;61139;-26
2023/02/16 05:59:40;;;;;;;15.90;9.50;;;;;;;-1.77;83.94;99735.06;105419;1265;61619;-25
2023/02/16 06:02:08;;;;;;;15.50;7.30;;;;;;;-1.81;84.31;99732.41;105354;1259;75356;-26
2023/02/16 06:04:38;;;;;;;15.70;9.10;;;;;;;-1.30;83.87;99735.96;105402;1260;75398;-26
2023/02/16 06:07:06;;;;;;;13.00;8.30;;;;;;;-1.21;82.58;99738.48;105112;1257;74148;-23
2023/02/16 06:09:34;;;;;;;18.40;10.00;;;;;;;-1.33;82.94;99741.66;105330;1262;61178;-23
2023/02/16 06:12:07;;;;;;;13.20;7.60;;;;;;;-1.50;83.55;99740.81;105460;1263;62134;-25
2023/02/16 06:14:36;;;;;;;18.10;10.70;;;;;;;-1.70;84.34;99739.83;105357;1260;75532;-23
2023/02/16 06:17:04;;;;;;;14.90;8.20;;;;;;;-1.76;85.08;99738.12;105459;1259;75866;-26
2023/02/16 06:19:37;;;;;;;17.50;10.20;;;;;;;-1.22;84.31;99738.34;105410;1260;73922;-26
2023/02/16 06:22:06;;;;;;;18.30;10.50;;;;;;;-0.83;82.42;99737.99;105570;1260;62206;-25
2023/02/16 06:24:34;;;;;;;18.60;10.50;;;;;;;-0.83;81.85;99737.29;105515;1259;61885;-24
2023/02/16 06:27:02;;;;;;;9.80;5.40;;;;;;;-0.90;81.77;99735.25;105633;1257;75662;-25
2023/02/16 06:29:31;;;;;;;12.40;7.20;;;;;;;-0.98;82.13;99734.41;105526;1258;76137;-26
2023/02/16 06:31:59;;;;;;;15.00;8.10;;;;;;;-1.15;82.34;99732.57;105652;1258;74217;-25
2023/02/16 06:34:28;;;;;;;17.10;8.30;;;;;;;-1.27;82.59;99732.98;105663;1261;63000;-25
2023/02/16 06:36:57;;;;;;;9.30;5.70;;;;;;;-0.76;82.19;99736.61;105410;1259;62364;-25
2023/02/16 06:39:25;;;;;;;22.00;11.70;;;;;;;-0.38;80.67;99730.58;105380;1260;75180;-25
2023/02/16 06:41:53;;;;;;;13.30;8.00;;;;;;;-0.33;80.06;99728.59;105375;1259;76194;-25
2023/02/16 06:44:22;;;;;;;20.10;10.80;;;;;;;-0.48;80.15;99729.15;105448;1257;74446;-25
2023/02/16 06:46:50;;;;;;;25.50;13.80;;;;;;;-0.71;80.42;99727.65;105358;1257;61147;-25
2023/02/16 06:49:19;;;;;;;21.90;12.00;;;;;;;-0.88;80.89;99726.86;105407;1258;62009;-25
2023/02/16 06:51:48;;;;;;;22.90;11.80;;;;;;;-1.04;81.29;99722.78;105394;1260;74239;-25
2023/02/16 06:54:17;;;;;;;14.10;8.40;;;;;;;-0.94;82.07;99723.07;105400;1259;75802;-25
2023/02/16 06:56:45;;;;;;;12.00;7.30;;;;;;;-0.05;81.81;99725.29;105227;1260;74535;-25
2023/02/16 06:59:14;;;;;;;14.50;9.30;;;;;;;0.54;79.94;99728.77;105557;1255;62289;-25
2023/02/16 07:01:43;;;;;;;26.10;12.10;;;;;;;0.53;78.10;99724.04;105525;1261;61838;-25
2023/02/16 07:04:13;;;;;;;17.70;10.50;;;;;;;0.36;78.12;99722.30;105581;1258;75593;-25
2023/02/16 07:06:42;;;;;;;24.40;12.10;;;;;;;0.16;78.43;99718.06;105432;1257;76055;-25
2023/02/16 07:16:50;;;;;;;13.30;6.90;;;;;;;-0.22;81.03;99707.98;102602;1292;600123;-25
2023/02/16 07:19:19;;;;;;;11.50;6.60;;;;;;;0.49;79.34;99711.84;104880;1266;61049;-26
2023/02/16 07:21:47;;;;;;;17.20;9.10;;;;;;;0.88;76.49;99706.91;104885;1267;62011;-26
2023/02/16 07:24:16;;;;;;;15.30;7.80;;;;;;;1.00;75.98;99701.93;104921;1267;74056;-26
2023/02/16 07:26:45;;;;;;;13.70;7.50;;;;;;;0.94;75.01;99699.71;104787;1271;74638;-26
2023/02/16 07:29:14;;;;;;;13.60;8.20;;;;;;;0.82;75.38;99698.05;104846;1266;73893;-25
2023/02/16 07:31:42;;;;;;;17.60;8.70;;;;;;;0.74;75.97;99700.69;103822;1263;61202;-25
2023/02/16 07:34:11;;;;;;;16.00;8.80;;;;;;;0.76;76.55;99691.21;104939;1269;61834;-26
2023/02/16 07:36:40;;;;;;;17.30;9.50;;;;;;;0.79;76.31;99687.02;105133;1269;74063;-26
2023/02/16 07:39:08;;;;;;;17.90;9.50;;;;;;;0.80;75.41;99685.10;104880;1269;76173;-25
2023/02/16 07:41:36;;;;;;;13.80;8.20;;;;;;;0.72;75.05;99681.59;104888;1267;74427;-26
2023/02/16 07:44:07;;;;;;;14.50;8.40;;;;;;;0.66;75.13;99679.04;104812;1264;61642;-26
2023/02/16 07:46:36;;;;;;;13.30;7.80;;;;;;;0.70;75.31;99679.77;104977;1267;61870;-27
2023/02/16 07:49:05;;;;;;;17.90;9.90;;;;;;;0.81;75.41;99680.30;105004;1266;74586;-26
2023/02/16 07:51:34;;;;;;;16.20;8.90;;;;;;;0.92;74.71;99679.28;104919;1264;75911;-26
2023/02/16 07:54:02;;;;;;;16.50;8.80;;;;;;;1.02;74.84;99681.53;104940;1267;73167;-25
2023/02/16 07:56:32;;;;;;;17.30;9.50;;;;;;;0.99;74.83;99678.20;105164;1266;61421;-26
2023/02/16 07:59:01;;;;;;;14.80;8.80;;;;;;;1.04;74.96;99674.10;104809;1267;61870;-25
2023/02/16 08:01:31;;;;;;;15.00;9.20;;;;;;;1.22;74.32;99667.55;104818;1269;74800;-25
2023/02/16 08:03:59;;;;;;;12.10;6.80;;;;;;;1.38;74.24;99667.16;105438;1261;75924;-25
2023/02/16 08:06:28;;;;;;;14.50;8.30;;;;;;;1.42;71.91;99660.88;105362;1257;72368;-26
2023/02/16 08:08:57;;;;;;;17.40;8.80;;;;;;;1.40;71.51;99657.36;105319;1258;61478;-25
2023/02/16 08:11:26;;;;;;;16.00;8.50;;;;;;;1.53;71.76;99650.75;105453;1262;61610;-24
2023/02/16 08:13:57;;;;;;;14.00;8.60;;;;;;;1.60;71.77;99643.49;105362;1260;74798;-24
2023/02/16 08:16:27;;;;;;;14.10;8.60;;;;;;;1.75;70.80;99641.44;105262;1257;75595;-26
2023/02/16 08:18:57;;;;;;;16.60;9.00;;;;;;;1.81;70.33;99640.04;105311;1257;74182;-24
2023/02/16 08:21:27;;;;;;;10.10;6.30;;;;;;;1.88;68.71;99635.70;105343;1262;61846;-24
2023/02/16 08:24:01;;;;;;;19.20;7.90;;;;;;;1.92;68.47;99635.02;105488;1262;61731;-24
2023/02/16 08:26:48;;;;;;;15.40;8.30;;;;;;;2.03;67.82;99633.94;105421;1257;74604;-24
2023/02/16 08:29:17;;;;;;;17.40;9.20;;;;;;;2.37;67.64;99635.58;105339;1257;75865;-24
2023/02/16 08:31:46;;;;;;;15.30;8.60;;;;;;;2.59;66.32;99634.75;105600;1260;74122;-24
2023/02/16 08:34:16;;;;;;;15.70;9.00;;;;;;;2.75;65.02;99633.77;105582;1257;61205;-25
2023/02/16 08:36:46;;;;;;;18.50;9.20;;;;;;;2.81;65.59;99628.39;105542;1263;61927;-24
2023/02/16 08:39:16;;;;;;;18.60;9.70;;;;;;;3.16;64.80;99626.81;105527;1257;74754;-24
2023/02/16 08:41:46;;;;;;;16.70;9.50;;;;;;;3.29;64.29;99623.55;105519;1257;75883;-24
2023/02/16 08:44:16;;;;;;;17.70;9.50;;;;;;;3.52;63.09;99623.92;105277;1257;74489;-24
2023/02/16 08:46:47;;;;;;;12.20;6.50;;;;;;;3.72;62.75;99624.30;105486;1257;61200;-24
2023/02/16 08:49:17;;;;;;;19.40;10.30;;;;;;;3.75;61.95;99619.15;105609;1257;61191;-24
2023/02/16 08:51:47;;;;;;;17.20;9.60;;;;;;;3.92;61.80;99618.61;105559;1261;75122;-24
2023/02/16 08:54:24;;;;;;;14.60;8.00;;;;;;;4.07;61.99;99612.75;105520;1257;75882;-24
2023/02/16 08:56:54;;;;;;;11.10;6.80;;;;;;;4.18;60.66;99608.30;105319;1259;74523;-24
2023/02/16 08:59:23;;;;;;;9.10;5.60;;;;;;;4.17;60.61;99612.30;105286;1261;61154;-24
2023/02/16 09:01:56;;;;;;;15.10;8.00;;;;;;;4.16;60.92;99613.41;105436;1262;61879;-24
2023/02/16 09:04:27;;;;;;;12.10;6.70;;;;;;;4.38;60.67;99605.00;105621;1257;74527;-24
2023/02/16 09:06:58;;;;;;;15.80;8.40;;;;;;;4.47;60.21;99604.77;105384;1257;75188;-24
2023/02/16 09:09:27;;;;;;;17.60;8.70;;;;;;;4.63;60.48;99602.29;105320;1257;74429;-25
2023/02/16 09:11:57;;;;;;;18.20;8.60;;;;;;;4.83;60.52;99598.08;105491;1257;61941;-24
2023/02/16 09:14:26;;;;;;;13.80;7.30;;;;;;;5.10;59.61;99597.26;105335;1261;61935;-25
2023/02/16 09:16:56;;;;;;;15.90;7.30;;;;;;;5.07;58.67;99598.59;105275;1257;74878;-24
2023/02/16 09:19:27;;;;;;;15.20;8.20;;;;;;;4.98;59.17;99593.04;105227;1263;75622;-24
2023/02/16 09:21:55;;;;;;;11.00;6.60;;;;;;;5.30;58.62;99597.13;105451;1260;74490;-24
2023/02/16 09:24:26;;;;;;;13.20;7.30;;;;;;;5.43;57.63;99586.45;105189;1257;62137;-24
2023/02/16 09:26:54;;;;;;;15.00;7.80;;;;;;;5.62;57.36;99589.60;105638;1257;61962;-24
2023/02/16 09:29:23;;;;;;;15.10;7.10;;;;;;;5.76;56.52;99589.20;105597;1257;74628;-25
2023/02/16 09:31:53;;;;;;;13.30;7.10;;;;;;;5.83;56.98;99583.35;105591;1257;76008;-25
2023/02/16 09:34:24;;;;;;;12.40;5.20;;;;;;;6.05;55.78;99580.48;105211;1257;74435;-24
2023/02/16 09:36:55;;;;;;;12.40;6.60;;;;;;;6.05;54.95;99584.65;105472;1257;61639;-24
2023/02/16 09:39:24;;;;;;;8.40;5.20;;;;;;;6.30;55.09;99578.62;105241;1261;62000;-25
2023/02/16 09:42:20;;;;;;;8.80;6.00;;;;;;;6.30;54.67;99581.90;105574;1257;74515;-24
2023/02/16 09:45:04;;;;;;;10.80;6.30;;;;;;;6.47;54.45;99578.54;105616;1262;74530;-24
2023/02/16 09:47:36;;;;;;;8.80;5.30;;;;;;;6.75;53.93;99574.92;105385;1265;74285;-24
2023/02/16 09:50:18;;;;;;;10.60;5.70;;;;;;;6.89;52.65;99576.17;105635;1258;61672;-24
2023/02/16 09:53:12;;;;;;;7.80;5.00;;;;;;;7.05;51.13;99572.35;105507;1258;62113;-24
2023/02/16 09:56:02;;;;;;;10.10;5.80;;;;;;;7.22;51.53;99573.42;105155;1257;72919;-25
2023/02/16 09:58:44;;;;;;;7.50;4.50;;;;;;;7.51;50.32;99571.36;105362;1257;75767;-24
2023/02/16 10:01:12;;;;;;;9.70;5.00;;;;;;;7.54;48.03;99562.55;105426;1260;74148;-26
2023/02/16 10:03:59;;;;;;;6.60;4.30;;;;;;;7.57;48.53;99559.41;105511;1257;61837;-24
2023/02/16 10:06:41;;;;;;;7.50;4.70;;;;;;;7.63;47.60;99559.62;105592;1257;61746;-24
2023/02/16 10:09:12;;;;;;;8.40;4.90;;;;;;;7.58;47.47;99559.86;105214;1257;73005;-26
2023/02/16 10:11:48;;;;;;;9.40;4.80;;;;;;;7.30;47.95;99555.02;105227;1263;74423;-25
2023/02/16 10:14:32;;;;;;;7.50;4.90;;;;;;;7.32;49.28;99550.90;105389;1264;73929;-27
2023/02/16 10:17:27;;;;;;;7.00;3.50;;;;;;;7.65;48.12;99550.31;105574;1257;61780;-26
2023/02/16 10:20:10;;;;;;;11.50;5.20;;;;;;;7.79;46.47;99543.95;105627;1257;61245;-24
2023/02/16 10:22:38;;;;;;;8.00;4.90;;;;;;;7.78;46.51;99546.08;105166;1257;74906;-23
2023/02/16 10:25:13;;;;;;;9.20;5.70;;;;;;;7.93;46.97;99541.85;105399;1257;75802;-24
2023/02/16 10:27:43;;;;;;;5.80;4.00;;;;;;;8.08;46.28;99536.27;105253;1266;74422;-24
2023/02/16 10:30:19;;;;;;;9.70;4.60;;;;;;;8.21;44.91;99535.95;105098;1260;62036;-25
2023/02/16 10:32:55;;;;;;;10.10;5.30;;;;;;;8.08;44.14;99528.98;105578;1259;61549;-24
2023/02/16 10:35:39;;;;;;;8.30;3.80;;;;;;;8.00;44.65;99526.72;105522;1258;75450;-25
2023/02/16 10:38:47;;;;;;;11.00;5.00;;;;;;;7.83;45.50;99520.71;105553;1259;75432;-24
2023/02/16 10:41:25;;;;;;;8.10;4.90;;;;;;;7.88;45.91;99511.61;105138;1258;73912;-24
2023/02/16 10:44:02;;;;;;;9.00;4.90;;;;;;;7.69;45.73;99506.73;105203;1262;61147;-24
2023/02/16 10:46:35;;;;;;;6.50;3.40;;;;;;;7.41;46.09;99498.02;105347;1257;61629;-24
2023/02/16 10:49:04;;;;;;;12.40;5.70;;;;;;;7.23;46.29;99499.48;105233;1257;74611;-24
2023/02/16 10:51:35;;;;;;;6.70;4.60;;;;;;;7.37;46.50;99494.84;105200;1258;74837;-24
2023/02/16 10:54:07;;;;;;;7.70;4.20;;;;;;;7.45;45.84;99485.53;105111;1257;73487;-24
2023/02/16 10:56:52;;;;;;;6.90;3.60;;;;;;;7.22;46.32;99483.62;105095;1263;61169;-24
2023/02/16 10:59:22;;;;;;;7.30;4.20;;;;;;;7.00;45.90;99478.42;105139;1257;61064;-25
2023/02/16 11:02:00;;;;;;;8.80;4.30;;;;;;;7.08;46.22;99474.14;105233;1262;73316;-24
2023/02/16 11:04:34;;;;;;;8.80;4.50;;;;;;;7.26;46.27;99473.20;105186;1265;75956;-24
2023/02/16 11:07:24;;;;;;;6.30;4.40;;;;;;;7.23;46.11;99466.81;105218;1258;73520;-25
2023/02/16 11:09:59;;;;;;;10.00;5.00;;;;;;;7.20;46.20;99460.45;105096;1258;61992;-25
2023/02/16 11:12:37;;;;;;;10.10;4.90;;;;;;;7.55;46.43;99451.21;105094;1265;62185;-25
2023/02/16 11:15:17;;;;;;;8.50;4.60;;;;;;;7.78;45.28;99444.27;105274;1254;73666;-25
2023/02/16 11:17:51;;;;;;;9.90;4.40;;;;;;;7.98;44.09;99438.85;105679;1254;75864;-25
2023/02/16 11:20:45;;;;;;;7.80;3.80;;;;;;;7.82;44.11;99440.38;105602;1254;74033;-25
2023/02/16 11:23:41;;;;;;;8.70;4.80;;;;;;;7.54;44.22;99430.55;105512;1257;61891;-26
2023/02/16 11:26:09;;;;;;;8.60;4.30;;;;;;;7.52;45.07;99425.13;105472;1254;61799;-25
2023/02/16 11:28:43;;;;;;;9.50;4.90;;;;;;;7.62;44.83;99422.09;105495;1254;74254;-24
2023/02/16 11:31:13;;;;;;;7.80;4.30;;;;;;;7.70;45.81;99418.34;105403;1254;75546;-25
2023/02/16 11:33:42;;;;;;;11.90;6.00;;;;;;;7.85;44.98;99422.88;105555;1255;73473;-27
2023/02/16 11:36:41;;;;;;;5.10;3.40;;;;;;;8.11;45.26;99410.00;105724;1258;62484;-25
2023/02/16 11:39:12;;;;;;;9.80;4.50;;;;;;;8.08;44.74;99410.16;105736;1259;62140;-25
2023/02/16 11:41:52;;;;;;;12.10;6.10;;;;;;;7.92;45.44;99408.13;105773;1257;74719;-25
2023/02/16 11:44:32;;;;;;;10.30;5.10;;;;;;;7.99;46.00;99409.05;105808;1258;74613;-25
2023/02/16 11:47:03;;;;;;;9.90;5.10;;;;;;;8.22;46.00;99403.95;105702;1254;74184;-24
2023/02/16 11:49:39;;;;;;;9.80;4.50;;;;;;;8.27;45.41;99390.09;105485;1257;61207;-25
2023/02/16 11:52:21;;;;;;;14.10;5.80;;;;;;;8.15;45.54;99388.10;105517;1258;61071;-24
2023/02/16 11:54:53;;;;;;;13.20;5.90;;;;;;;7.78;46.14;99386.89;105666;1255;74853;-24
2023/02/16 11:57:30;;;;;;;8.40;5.10;;;;;;;7.78;46.88;99384.15;105717;1260;75666;-25
2023/02/16 11:59:59;;;;;;;8.90;4.90;;;;;;;7.64;46.88;99372.55;105679;1253;74083;-24
2023/02/16 12:03:07;;;;;;;9.00;4.70;;;;;;;7.61;46.25;99370.00;105778;1257;61046;-25
2023/02/16 12:05:42;;;;;;;14.10;5.10;;;;;;;7.23;47.63;99369.23;105783;1256;61164;-24
2023/02/16 12:08:24;;;;;;;7.20;4.40;;;;;;;7.22;47.87;99360.81;105597;1260;75187;-24
2023/02/16 12:11:05;;;;;;;8.30;3.70;;;;;;;6.93;48.80;99362.09;105558;1259;76006;-24
2023/02/16 12:13:47;;;;;;;12.10;4.40;;;;;;;6.88;48.92;99360.00;105943;1254;73755;-24
2023/02/16 12:16:43;;;;;;;9.70;3.70;;;;;;;6.91;49.31;99358.27;105796;1257;61131;-24
2023/02/16 12:19:29;;;;;;;8.00;3.90;;;;;;;6.82;49.67;99355.02;105799;1258;61840;-24
2023/02/16 12:22:09;;;;;;;10.60;4.70;;;;;;;6.71;49.82;99351.88;105552;1257;75350;-24
2023/02/16 12:25:09;;;;;;;11.70;4.60;;;;;;;6.91;50.19;99351.02;105876;1259;76044;-24
2023/02/16 12:27:45;;;;;;;8.40;3.60;;;;;;;7.12;49.56;99340.25;105596;1257;73275;-24
2023/02/16 12:30:27;;;;;;;9.90;3.80;;;;;;;6.91;49.82;99337.90;105621;1259;61186;-24
2023/02/16 12:33:09;;;;;;;5.20;2.90;;;;;;;6.84;50.29;99328.50;105551;1257;61125;-24
2023/02/16 12:36:11;;;;;;;10.30;4.50;;;;;;;6.80;50.44;99323.05;105519;1260;75430;-24
2023/02/16 12:38:52;;;;;;;10.90;4.70;;;;;;;6.74;51.15;99319.78;105285;1261;74991;-24